createdAt,value
2022-07-29T00:00:47.871Z,14.74
2022-07-29T00:01:47.847Z,14.72
2022-07-29T00:02:47.907Z,14.72
2022-07-29T00:03:47.926Z,14.72
2022-07-29T00:04:47.822Z,14.69
2022-07-29T00:05:47.807Z,14.67
2022-07-29T00:06:47.772Z,14.69
2022-07-29T00:07:47.858Z,14.67
2022-07-29T00:08:47.739Z,14.67
2022-07-29T00:09:52.057Z,14.66
2022-07-29T00:10:47.738Z,14.67
2022-07-29T00:11:47.698Z,14.69
2022-07-29T00:12:47.678Z,14.69
2022-07-29T00:13:50.834Z,14.69
2022-07-29T00:14:47.660Z,14.69
2022-07-29T00:15:47.678Z,14.72
2022-07-29T00:16:47.672Z,14.67
2022-07-29T00:17:47.629Z,14.67
2022-07-29T00:18:47.611Z,14.63
2022-07-29T00:19:47.598Z,14.63
2022-07-29T00:20:47.623Z,14.60
2022-07-29T00:21:47.569Z,14.59
2022-07-29T00:22:48.475Z,14.53
2022-07-29T00:23:47.575Z,14.53
2022-07-29T00:24:47.529Z,14.52
2022-07-29T00:25:47.550Z,14.46
2022-07-29T00:26:47.780Z,14.42
2022-07-29T00:27:47.496Z,14.41
2022-07-29T00:28:47.487Z,14.39
2022-07-29T00:29:47.562Z,14.35
2022-07-29T00:30:48.497Z,14.27
2022-07-29T00:31:47.517Z,14.29
2022-07-29T00:32:47.425Z,14.26
2022-07-29T00:33:47.416Z,14.24
2022-07-29T00:34:47.430Z,14.26
2022-07-29T00:35:47.422Z,14.23
2022-07-29T00:36:47.398Z,14.21
2022-07-29T00:37:47.482Z,14.20
2022-07-29T00:38:47.358Z,14.19
2022-07-29T00:39:47.377Z,14.20
2022-07-29T00:40:47.399Z,14.20
2022-07-29T00:41:48.260Z,14.23
2022-07-29T00:42:47.307Z,14.23
2022-07-29T00:43:47.287Z,14.19
2022-07-29T00:44:47.279Z,14.20
2022-07-29T00:45:47.289Z,14.17
2022-07-29T00:46:47.284Z,14.16
2022-07-29T00:47:47.261Z,14.13
2022-07-29T00:48:47.344Z,14.12
2022-07-29T00:49:47.285Z,14.16
2022-07-29T00:50:47.279Z,14.16
2022-07-29T00:51:47.179Z,14.12
2022-07-29T00:52:47.220Z,14.11
2022-07-29T00:53:47.431Z,14.12
2022-07-29T00:54:47.625Z,14.12
2022-07-29T00:55:47.524Z,14.13
2022-07-29T00:56:47.368Z,14.13
2022-07-29T00:57:47.099Z,14.13
2022-07-29T00:58:47.120Z,14.13
2022-07-29T00:59:47.079Z,14.16
2022-07-29T01:00:47.141Z,14.13
2022-07-29T01:01:47.119Z,14.12
2022-07-29T01:02:47.309Z,14.13
2022-07-29T01:03:47.039Z,14.13
2022-07-29T01:04:47.008Z,14.12
2022-07-29T01:05:50.223Z,14.17
2022-07-29T01:06:47.008Z,14.16
2022-07-29T01:07:46.980Z,14.17
2022-07-29T01:08:46.955Z,14.17
2022-07-29T01:09:47.317Z,14.21
2022-07-29T01:10:46.959Z,14.21
2022-07-29T01:11:46.920Z,14.24
2022-07-29T01:12:51.867Z,14.26
2022-07-29T01:13:46.889Z,14.21
2022-07-29T01:14:46.882Z,14.24
2022-07-29T01:15:49.239Z,14.27
2022-07-29T01:16:46.915Z,14.26
2022-07-29T01:17:53.273Z,14.27
2022-07-29T01:18:47.827Z,14.27
2022-07-29T01:19:46.810Z,14.29
2022-07-29T01:20:46.920Z,14.24
2022-07-29T01:21:46.831Z,14.24
2022-07-29T01:22:46.810Z,14.24
2022-07-29T01:23:46.904Z,14.20
2022-07-29T01:24:47.370Z,14.21
2022-07-29T01:25:47.437Z,14.21
2022-07-29T01:26:48.089Z,14.20
2022-07-29T01:27:46.811Z,14.23
2022-07-29T01:28:46.794Z,14.19
2022-07-29T01:29:46.682Z,14.20
2022-07-29T01:30:46.701Z,14.19
2022-07-29T01:31:58.600Z,14.21
2022-07-29T01:32:47.651Z,14.20
2022-07-29T01:33:47.832Z,14.17
2022-07-29T01:34:46.821Z,14.17
2022-07-29T01:35:46.632Z,14.17
2022-07-29T01:36:46.589Z,14.16
2022-07-29T01:37:46.696Z,14.17
2022-07-29T01:38:46.563Z,14.16
2022-07-29T01:39:46.549Z,14.13
2022-07-29T01:40:46.599Z,14.11
2022-07-29T01:41:46.533Z,14.13
2022-07-29T01:42:46.547Z,14.13
2022-07-29T01:43:46.489Z,14.11
2022-07-29T01:44:46.480Z,14.12
2022-07-29T01:45:46.531Z,14.08
2022-07-29T01:46:46.600Z,14.05
2022-07-29T01:47:46.441Z,14.06
2022-07-29T01:48:46.470Z,14.05
2022-07-29T01:49:46.554Z,14.05
2022-07-29T01:50:46.760Z,14.02
2022-07-29T01:51:46.430Z,14.05
2022-07-29T01:52:46.381Z,13.99
2022-07-29T01:53:46.480Z,13.96
2022-07-29T01:54:46.657Z,13.96
2022-07-29T01:55:46.372Z,13.96
2022-07-29T01:56:46.381Z,13.94
2022-07-29T01:57:46.381Z,13.88
2022-07-29T01:58:46.299Z,13.86
2022-07-29T01:59:46.286Z,13.83
2022-07-29T02:00:46.514Z,13.79
2022-07-29T02:01:46.368Z,13.76
2022-07-29T02:02:46.249Z,13.73
2022-07-29T02:03:46.231Z,13.72
2022-07-29T02:04:46.249Z,13.66
2022-07-29T02:05:46.541Z,13.69
2022-07-29T02:06:46.285Z,13.66
2022-07-29T02:07:46.219Z,13.66
2022-07-29T02:08:46.200Z,13.61
2022-07-29T02:09:46.192Z,13.59
2022-07-29T02:10:46.177Z,13.55
2022-07-29T02:11:46.169Z,13.53
2022-07-29T02:12:46.630Z,13.47
2022-07-29T02:13:46.101Z,13.44
2022-07-29T02:14:46.139Z,13.32
2022-07-29T02:15:46.192Z,13.29
2022-07-29T02:16:46.315Z,13.25
2022-07-29T02:17:46.155Z,13.21
2022-07-29T02:18:46.118Z,13.19
2022-07-29T02:19:46.089Z,13.17
2022-07-29T02:20:46.089Z,13.12
2022-07-29T02:21:46.091Z,13.09
2022-07-29T02:22:46.001Z,13.06
2022-07-29T02:23:51.431Z,13.03
2022-07-29T02:24:46.975Z,13.01
2022-07-29T02:25:46.296Z,12.96
2022-07-29T02:26:47.542Z,12.95
2022-07-29T02:27:46.665Z,12.92
2022-07-29T02:28:45.981Z,12.88
2022-07-29T02:29:45.910Z,12.85
2022-07-29T02:30:46.216Z,12.87
2022-07-29T02:31:45.913Z,12.81
2022-07-29T02:32:47.050Z,12.77
2022-07-29T02:33:46.191Z,12.77
2022-07-29T02:34:45.985Z,12.73
2022-07-29T02:35:45.890Z,12.67
2022-07-29T02:36:46.120Z,12.66
2022-07-29T02:37:45.803Z,12.62
2022-07-29T02:38:45.780Z,12.62
2022-07-29T02:39:46.315Z,12.62
2022-07-29T02:40:45.769Z,12.58
2022-07-29T02:41:45.750Z,12.59
2022-07-29T02:42:45.728Z,12.54
2022-07-29T02:43:45.722Z,12.55
2022-07-29T02:44:45.698Z,12.51
2022-07-29T02:45:45.720Z,12.49
2022-07-29T02:46:45.730Z,12.51
2022-07-29T02:47:45.660Z,12.46
2022-07-29T02:48:45.703Z,12.49
2022-07-29T02:49:46.013Z,12.49
2022-07-29T02:50:45.789Z,12.46
2022-07-29T02:51:45.755Z,12.48
2022-07-29T02:52:45.599Z,12.51
2022-07-29T02:53:45.591Z,12.49
2022-07-29T02:54:45.569Z,12.46
2022-07-29T02:55:45.586Z,12.44
2022-07-29T02:56:45.553Z,12.44
2022-07-29T02:57:54.345Z,12.43
2022-07-29T02:58:46.571Z,12.41
2022-07-29T02:59:45.509Z,12.40
2022-07-29T03:00:45.519Z,12.38
2022-07-29T03:01:45.741Z,12.37
2022-07-29T03:02:45.466Z,12.36
2022-07-29T03:03:45.407Z,12.33
2022-07-29T03:04:45.491Z,12.29
2022-07-29T03:05:45.432Z,12.26
2022-07-29T03:06:45.601Z,12.26
2022-07-29T03:07:45.359Z,12.23
2022-07-29T03:08:45.329Z,12.22
2022-07-29T03:09:45.330Z,12.18
2022-07-29T03:10:45.311Z,12.18
2022-07-29T03:11:50.594Z,12.22
2022-07-29T03:12:46.279Z,12.19
2022-07-29T03:13:45.329Z,12.18
2022-07-29T03:14:45.268Z,12.18
2022-07-29T03:15:45.307Z,12.18
2022-07-29T03:16:45.313Z,12.19
2022-07-29T03:17:45.228Z,12.16
2022-07-29T03:18:45.229Z,12.18
2022-07-29T03:19:45.197Z,12.16
2022-07-29T03:20:45.197Z,12.18
2022-07-29T03:21:45.200Z,12.18
2022-07-29T03:22:45.170Z,12.15
2022-07-29T03:23:45.140Z,12.13
2022-07-29T03:24:45.127Z,12.12
2022-07-29T03:25:45.119Z,12.11
2022-07-29T03:26:45.125Z,12.07
2022-07-29T03:27:45.102Z,12.05
2022-07-29T03:28:45.080Z,12.05
2022-07-29T03:29:49.964Z,12.07
2022-07-29T03:30:46.091Z,12.12
2022-07-29T03:31:45.070Z,12.12
2022-07-29T03:32:45.030Z,12.13
2022-07-29T03:33:45.010Z,12.13
2022-07-29T03:34:44.989Z,12.16
2022-07-29T03:35:45.010Z,12.15
2022-07-29T03:36:44.973Z,12.19
2022-07-29T03:37:44.960Z,12.19
2022-07-29T03:38:44.947Z,12.21
2022-07-29T03:39:44.937Z,12.23
2022-07-29T03:40:44.938Z,12.26
2022-07-29T03:41:44.909Z,12.33
2022-07-29T03:42:44.892Z,12.37
2022-07-29T03:43:49.460Z,12.40
2022-07-29T03:44:45.862Z,12.41
2022-07-29T03:45:44.881Z,12.44
2022-07-29T03:46:44.912Z,12.51
2022-07-29T03:47:50.655Z,12.52
2022-07-29T03:48:45.874Z,12.54
2022-07-29T03:49:44.799Z,12.54
2022-07-29T03:50:44.819Z,12.54
2022-07-29T03:51:44.811Z,12.56
2022-07-29T03:52:45.387Z,12.56
2022-07-29T03:53:44.759Z,12.61
2022-07-29T03:54:44.738Z,12.61
2022-07-29T03:55:44.760Z,12.61
2022-07-29T03:56:44.709Z,12.61
2022-07-29T03:57:44.699Z,12.62
2022-07-29T03:58:44.786Z,12.62
2022-07-29T03:59:44.678Z,12.62
2022-07-29T04:00:44.686Z,12.62
2022-07-29T04:01:44.737Z,12.66
2022-07-29T04:02:44.799Z,12.66
2022-07-29T04:03:44.697Z,12.66
2022-07-29T04:04:44.613Z,12.69
2022-07-29T04:05:44.620Z,12.67
2022-07-29T04:06:44.581Z,12.67
2022-07-29T04:07:44.589Z,12.69
2022-07-29T04:08:44.556Z,12.71
2022-07-29T04:09:44.549Z,12.73
2022-07-29T04:10:44.565Z,12.77
2022-07-29T04:12:02.072Z,12.76
2022-07-29T04:12:45.505Z,12.79
2022-07-29T04:13:44.531Z,12.84
2022-07-29T04:14:44.496Z,12.84
2022-07-29T04:15:44.528Z,12.88
2022-07-29T04:16:44.446Z,12.88
2022-07-29T04:17:44.437Z,12.92
2022-07-29T04:18:44.420Z,12.95
2022-07-29T04:19:44.428Z,12.99
2022-07-29T04:20:44.418Z,13.03
2022-07-29T04:21:44.389Z,13.04
2022-07-29T04:22:44.384Z,13.09
2022-07-29T04:23:53.141Z,13.13
2022-07-29T04:24:45.339Z,13.12
2022-07-29T04:25:44.359Z,13.19
2022-07-29T04:26:44.319Z,13.21
2022-07-29T04:27:44.309Z,13.25
2022-07-29T04:28:44.297Z,13.25
2022-07-29T04:29:56.704Z,13.27
2022-07-29T04:30:45.311Z,13.27
2022-07-29T04:31:44.364Z,13.28
2022-07-29T04:32:44.240Z,13.29
2022-07-29T04:33:44.230Z,13.28
2022-07-29T04:34:44.215Z,13.28
2022-07-29T04:35:47.112Z,13.29
2022-07-29T04:36:45.219Z,13.28
2022-07-29T04:37:44.198Z,13.31
2022-07-29T04:38:44.167Z,13.31
2022-07-29T04:39:44.159Z,13.35
2022-07-29T04:40:44.165Z,13.35
2022-07-29T04:41:44.137Z,13.36
2022-07-29T04:42:46.691Z,13.38
2022-07-29T04:43:44.099Z,13.41
2022-07-29T04:44:44.098Z,13.43
2022-07-29T04:45:44.110Z,13.43
2022-07-29T04:46:44.113Z,13.44
2022-07-29T04:47:44.060Z,13.44
2022-07-29T04:48:44.115Z,13.46
2022-07-29T04:49:44.028Z,13.48
2022-07-29T04:50:44.038Z,13.51
2022-07-29T04:51:44.050Z,13.55
2022-07-29T04:52:44.017Z,13.55
2022-07-29T04:53:43.979Z,13.62
2022-07-29T04:54:43.965Z,13.61
2022-07-29T04:55:43.968Z,13.63
2022-07-29T04:56:43.927Z,13.66
2022-07-29T04:57:43.919Z,13.69
2022-07-29T04:58:43.901Z,13.68
2022-07-29T04:59:43.898Z,13.71
2022-07-29T05:00:43.917Z,13.72
2022-07-29T05:01:44.069Z,13.72
2022-07-29T05:02:43.901Z,13.73
2022-07-29T05:03:43.839Z,13.79
2022-07-29T05:04:43.819Z,13.81
2022-07-29T05:05:43.848Z,13.86
2022-07-29T05:06:43.808Z,13.88
2022-07-29T05:07:43.789Z,13.93
2022-07-29T05:08:43.768Z,14.01
2022-07-29T05:09:43.771Z,14.02
2022-07-29T05:10:43.926Z,14.08
2022-07-29T05:11:43.741Z,14.09
2022-07-29T05:12:43.728Z,14.13
2022-07-29T05:13:45.869Z,14.17
2022-07-29T05:14:43.698Z,14.20
2022-07-29T05:15:43.808Z,14.26
2022-07-29T05:16:43.668Z,14.29
2022-07-29T05:17:43.658Z,14.29
2022-07-29T05:18:43.684Z,14.31
2022-07-29T05:19:43.630Z,14.38
2022-07-29T05:20:43.647Z,14.38
2022-07-29T05:21:43.607Z,14.42
2022-07-29T05:22:43.588Z,14.44
2022-07-29T05:23:43.651Z,14.46
2022-07-29T05:24:43.570Z,14.49
2022-07-29T05:25:44.915Z,14.46
2022-07-29T05:26:43.538Z,14.52
2022-07-29T05:27:43.569Z,14.52
2022-07-29T05:28:43.530Z,14.56
2022-07-29T05:29:45.803Z,14.59
2022-07-29T05:30:43.595Z,14.61
2022-07-29T05:31:43.493Z,14.64
2022-07-29T05:32:43.458Z,14.71
2022-07-29T05:33:43.449Z,14.74
2022-07-29T05:34:51.291Z,14.75
2022-07-29T05:35:44.452Z,14.80
2022-07-29T05:36:43.399Z,14.86
2022-07-29T05:37:43.406Z,14.86
2022-07-29T05:38:43.399Z,14.94
2022-07-29T05:39:48.621Z,14.97
2022-07-29T05:40:44.379Z,15.00
2022-07-29T05:41:43.349Z,15.05
2022-07-29T05:42:43.329Z,15.05
2022-07-29T05:43:43.318Z,15.11
2022-07-29T05:44:43.860Z,15.18
2022-07-29T05:45:49.312Z,15.25
2022-07-29T05:46:44.321Z,15.28
2022-07-29T05:47:43.287Z,15.34
2022-07-29T05:48:44.411Z,15.37
2022-07-29T05:49:43.260Z,15.40
2022-07-29T05:50:44.097Z,15.46
2022-07-29T05:51:43.226Z,15.52
2022-07-29T05:52:43.197Z,15.52
2022-07-29T05:53:43.207Z,15.58
2022-07-29T05:54:43.169Z,15.62
2022-07-29T05:55:43.196Z,15.66
2022-07-29T05:56:43.171Z,15.71
2022-07-29T05:57:43.140Z,15.74
2022-07-29T05:58:43.121Z,15.78
2022-07-29T05:59:43.119Z,15.81
2022-07-29T06:00:43.128Z,15.85
2022-07-29T06:01:43.227Z,15.91
2022-07-29T06:02:43.069Z,15.92
2022-07-29T06:03:43.078Z,15.92
2022-07-29T06:04:43.131Z,15.95
2022-07-29T06:05:43.059Z,15.96
2022-07-29T06:06:43.019Z,15.99
2022-07-29T06:07:50.172Z,16.03
2022-07-29T06:08:43.991Z,16.04
2022-07-29T06:09:42.979Z,16.06
2022-07-29T06:10:42.989Z,16.04
2022-07-29T06:11:42.951Z,16.07
2022-07-29T06:12:44.729Z,16.04
2022-07-29T06:13:43.251Z,16.04
2022-07-29T06:14:43.069Z,16.04
2022-07-29T06:15:42.958Z,16.07
2022-07-29T06:16:43.226Z,16.03
2022-07-29T06:18:00.756Z,16.01
2022-07-29T06:18:43.860Z,16.03
2022-07-29T06:19:42.864Z,15.98
2022-07-29T06:20:42.862Z,15.96
2022-07-29T06:21:42.929Z,15.93
2022-07-29T06:22:42.799Z,15.93
2022-07-29T06:23:42.800Z,15.91
2022-07-29T06:24:42.784Z,15.93
2022-07-29T06:25:42.792Z,15.92
2022-07-29T06:26:42.758Z,15.89
2022-07-29T06:27:42.771Z,15.88
2022-07-29T06:28:42.720Z,15.91
2022-07-29T06:29:42.723Z,15.89
2022-07-29T06:30:42.794Z,15.85
2022-07-29T06:31:42.712Z,15.88
2022-07-29T06:32:43.394Z,15.88
2022-07-29T06:33:42.670Z,15.88
2022-07-29T06:34:42.642Z,15.85
2022-07-29T06:35:43.230Z,15.84
2022-07-29T06:36:43.619Z,15.86
2022-07-29T06:37:42.612Z,15.85
2022-07-29T06:38:49.442Z,15.85
2022-07-29T06:39:43.580Z,15.85
2022-07-29T06:40:42.591Z,15.86
2022-07-29T06:41:42.591Z,15.88
2022-07-29T06:42:42.531Z,15.86
2022-07-29T06:43:51.834Z,15.89
2022-07-29T06:44:43.510Z,15.89
2022-07-29T06:45:42.758Z,15.86
2022-07-29T06:46:42.650Z,15.91
2022-07-29T06:47:42.477Z,15.88
2022-07-29T06:48:42.559Z,15.91
2022-07-29T06:49:42.445Z,15.92
2022-07-29T06:50:42.460Z,15.86
2022-07-29T06:51:42.421Z,15.91
2022-07-29T06:52:42.461Z,15.88
2022-07-29T06:53:58.436Z,15.91
2022-07-29T06:54:43.382Z,15.88
2022-07-29T06:55:42.390Z,15.85
2022-07-29T06:56:42.378Z,15.84
2022-07-29T06:57:42.360Z,15.81
2022-07-29T06:58:42.361Z,15.80
2022-07-29T06:59:42.310Z,15.80
2022-07-29T07:00:42.331Z,15.77
2022-07-29T07:01:42.423Z,15.77
2022-07-29T07:02:42.342Z,15.78
2022-07-29T07:03:42.278Z,15.80
2022-07-29T07:04:42.251Z,15.84
2022-07-29T07:05:42.260Z,15.84
2022-07-29T07:06:42.230Z,15.86
2022-07-29T07:07:42.200Z,15.92
2022-07-29T07:08:42.207Z,15.92
2022-07-29T07:09:42.180Z,15.98
2022-07-29T07:10:42.190Z,16.04
2022-07-29T07:11:42.155Z,16.07
2022-07-29T07:12:42.153Z,16.10
2022-07-29T07:13:42.232Z,16.11
2022-07-29T07:14:42.114Z,16.11
2022-07-29T07:15:42.121Z,16.07
2022-07-29T07:16:42.193Z,16.08
2022-07-29T07:17:42.072Z,16.11
2022-07-29T07:18:42.071Z,16.18
2022-07-29T07:19:42.053Z,16.17
2022-07-29T07:20:42.062Z,16.22
2022-07-29T07:21:42.042Z,16.23
2022-07-29T07:22:42.020Z,16.25
2022-07-29T07:23:41.992Z,16.25
2022-07-29T07:24:41.983Z,16.25
2022-07-29T07:25:42.011Z,16.27
2022-07-29T07:26:42.053Z,16.26
2022-07-29T07:27:41.962Z,16.30
2022-07-29T07:28:41.931Z,16.30
2022-07-29T07:29:41.922Z,16.34
2022-07-29T07:30:41.939Z,16.37
2022-07-29T07:31:41.967Z,16.37
2022-07-29T07:32:41.884Z,16.41
2022-07-29T07:33:41.924Z,16.47
2022-07-29T07:34:41.872Z,16.50
2022-07-29T07:35:41.882Z,16.52
2022-07-29T07:36:41.841Z,16.55
2022-07-29T07:37:41.821Z,16.63
2022-07-29T07:38:41.814Z,16.65
2022-07-29T07:39:41.783Z,16.70
2022-07-29T07:40:41.809Z,16.75
2022-07-29T07:41:41.764Z,16.80
2022-07-29T07:42:41.746Z,16.81
2022-07-29T07:43:41.898Z,16.82
2022-07-29T07:45:03.875Z,16.82
2022-07-29T07:45:42.822Z,16.84
2022-07-29T07:46:42.505Z,16.85
2022-07-29T07:47:41.803Z,16.88
2022-07-29T07:48:41.743Z,16.91
2022-07-29T07:49:41.655Z,16.92
2022-07-29T07:50:41.715Z,16.96
2022-07-29T07:51:41.623Z,17.00
2022-07-29T07:52:41.644Z,17.03
2022-07-29T07:53:41.612Z,17.03
2022-07-29T07:54:41.593Z,17.05
2022-07-29T07:56:08.882Z,17.07
2022-07-29T07:56:42.563Z,17.06
2022-07-29T07:57:41.585Z,17.09
2022-07-29T07:58:41.547Z,17.12
2022-07-29T07:59:41.524Z,17.12
2022-07-29T08:00:41.575Z,17.14
2022-07-29T08:01:50.489Z,17.18
2022-07-29T08:02:42.516Z,17.18
2022-07-29T08:03:41.551Z,17.20
2022-07-29T08:04:41.462Z,17.18
2022-07-29T08:05:41.475Z,17.15
2022-07-29T08:06:41.444Z,17.15
2022-07-29T08:07:41.425Z,17.17
2022-07-29T08:08:41.418Z,17.12
2022-07-29T08:09:42.208Z,17.06
2022-07-29T08:10:41.405Z,16.99
2022-07-29T08:11:52.062Z,16.92
2022-07-29T08:12:42.365Z,16.90
2022-07-29T08:13:41.345Z,16.84
2022-07-29T08:14:41.324Z,16.78
2022-07-29T08:15:41.337Z,16.75
2022-07-29T08:16:41.341Z,16.67
2022-07-29T08:17:41.305Z,16.65
2022-07-29T08:18:41.277Z,16.62
2022-07-29T08:19:41.263Z,16.59
2022-07-29T08:20:41.284Z,16.52
2022-07-29T08:21:41.250Z,16.47
2022-07-29T08:22:41.227Z,16.45
2022-07-29T08:23:46.211Z,16.42
2022-07-29T08:24:42.211Z,16.40
2022-07-29T08:25:41.216Z,16.36
2022-07-29T08:26:41.176Z,16.37
2022-07-29T08:27:43.896Z,16.34
2022-07-29T08:28:41.146Z,16.33
2022-07-29T08:29:41.175Z,16.40
2022-07-29T08:30:41.195Z,16.37
2022-07-29T08:31:41.162Z,16.42
2022-07-29T08:32:53.640Z,16.48
2022-07-29T08:33:42.076Z,16.59
2022-07-29T08:34:41.076Z,16.67
2022-07-29T08:35:41.078Z,16.75
2022-07-29T08:36:41.066Z,16.91
2022-07-29T08:37:41.028Z,17.02
2022-07-29T08:38:41.119Z,17.10
2022-07-29T08:39:41.047Z,17.18
2022-07-29T08:40:41.146Z,17.28
2022-07-29T08:41:42.769Z,17.30
2022-07-29T08:42:42.136Z,17.39
2022-07-29T08:43:40.967Z,17.46
2022-07-29T08:44:41.016Z,17.53
2022-07-29T08:45:40.974Z,17.62
2022-07-29T08:46:41.977Z,17.74
2022-07-29T08:47:40.981Z,17.83
2022-07-29T08:48:41.003Z,18.01
2022-07-29T08:49:40.970Z,18.13
2022-07-29T08:50:40.978Z,18.26
2022-07-29T08:51:49.212Z,18.36
2022-07-29T08:52:41.863Z,18.42
2022-07-29T08:53:40.838Z,18.42
2022-07-29T08:54:40.818Z,18.51
2022-07-29T08:55:40.825Z,18.59
2022-07-29T08:56:40.788Z,18.69
2022-07-29T08:57:48.787Z,18.86
2022-07-29T08:58:41.759Z,18.94
2022-07-29T08:59:40.817Z,19.01
2022-07-29T09:00:40.861Z,19.10
2022-07-29T09:01:42.698Z,19.16
2022-07-29T09:02:40.712Z,19.16
2022-07-29T09:03:40.920Z,19.17
2022-07-29T09:04:40.689Z,19.25
2022-07-29T09:05:43.798Z,19.30
2022-07-29T09:06:41.669Z,19.30
2022-07-29T09:07:40.750Z,19.34
2022-07-29T09:08:40.630Z,19.38
2022-07-29T09:09:40.768Z,19.38
2022-07-29T09:10:40.856Z,19.39
2022-07-29T09:11:40.679Z,19.38
2022-07-29T09:12:40.802Z,19.42
2022-07-29T09:13:40.799Z,19.38
2022-07-29T09:14:40.558Z,19.34
2022-07-29T09:15:40.574Z,19.39
2022-07-29T09:16:52.690Z,19.43
2022-07-29T09:17:41.562Z,19.45
2022-07-29T09:18:40.511Z,19.45
2022-07-29T09:19:45.372Z,19.52
2022-07-29T09:20:41.512Z,19.53
2022-07-29T09:21:40.462Z,19.61
2022-07-29T09:22:42.177Z,19.67
2022-07-29T09:23:40.458Z,19.72
2022-07-29T09:24:40.421Z,19.76
2022-07-29T09:25:40.551Z,19.79
2022-07-29T09:26:40.403Z,19.80
2022-07-29T09:27:40.398Z,19.83
2022-07-29T09:28:40.373Z,19.86
2022-07-29T09:29:40.388Z,19.94
2022-07-29T09:30:40.521Z,20.05
2022-07-29T09:31:40.416Z,20.16
2022-07-29T09:32:40.412Z,20.26
2022-07-29T09:33:40.437Z,20.34
2022-07-29T09:34:40.293Z,20.50
2022-07-29T09:35:40.311Z,20.61
2022-07-29T09:36:40.302Z,20.69
2022-07-29T09:37:40.263Z,20.81
2022-07-29T09:38:40.246Z,20.91
2022-07-29T09:39:40.253Z,21.05
2022-07-29T09:40:40.254Z,21.18
2022-07-29T09:41:40.216Z,21.33
2022-07-29T09:42:40.207Z,21.46
2022-07-29T09:43:40.363Z,21.61
2022-07-29T09:44:40.208Z,21.71
2022-07-29T09:45:40.188Z,21.73
2022-07-29T09:46:40.197Z,21.85
2022-07-29T09:47:40.142Z,21.83
2022-07-29T09:48:40.208Z,21.81
2022-07-29T09:49:40.105Z,21.77
2022-07-29T09:50:40.118Z,21.71
2022-07-29T09:51:43.572Z,21.79
2022-07-29T09:52:40.068Z,22.11
2022-07-29T09:53:40.055Z,22.23
2022-07-29T09:54:41.040Z,22.27
2022-07-29T09:55:40.285Z,22.20
2022-07-29T09:56:40.766Z,22.20
2022-07-29T09:57:40.112Z,22.33
2022-07-29T09:58:40.006Z,22.30
2022-07-29T09:59:50.346Z,22.31
2022-07-29T10:00:43.541Z,22.42
2022-07-29T10:01:40.005Z,22.56
2022-07-29T10:02:39.947Z,22.57
2022-07-29T10:03:39.971Z,22.57
2022-07-29T10:04:40.013Z,22.61
2022-07-29T10:05:40.088Z,22.56
2022-07-29T10:06:39.926Z,22.57
2022-07-29T10:07:40.901Z,22.60
2022-07-29T10:08:39.866Z,22.60
2022-07-29T10:09:39.848Z,22.60
2022-07-29T10:10:40.022Z,22.64
2022-07-29T10:11:49.894Z,22.63
2022-07-29T10:12:40.899Z,22.64
2022-07-29T10:13:39.918Z,22.67
2022-07-29T10:14:39.910Z,22.74
2022-07-29T10:15:39.941Z,22.82
2022-07-29T10:16:39.779Z,23.00
2022-07-29T10:17:41.673Z,23.16
2022-07-29T10:18:39.815Z,23.39
2022-07-29T10:19:39.786Z,23.52
2022-07-29T10:20:39.951Z,23.78
2022-07-29T10:21:39.751Z,24.08
2022-07-29T10:22:55.191Z,24.34
2022-07-29T10:23:46.783Z,24.61
2022-07-29T10:24:41.251Z,24.97
2022-07-29T10:25:39.906Z,25.23
2022-07-29T10:26:39.711Z,25.39
2022-07-29T10:27:39.793Z,25.53
2022-07-29T10:28:39.814Z,25.72
2022-07-29T10:29:40.393Z,25.98
2022-07-29T10:30:39.822Z,26.50
2022-07-29T10:31:39.964Z,26.93
2022-07-29T10:32:39.860Z,27.28
2022-07-29T10:33:39.532Z,27.49
2022-07-29T10:34:39.624Z,27.80
2022-07-29T10:35:39.533Z,28.23
2022-07-29T10:36:39.671Z,28.25
2022-07-29T10:37:39.485Z,28.15
2022-07-29T10:38:40.481Z,27.96
2022-07-29T10:39:44.295Z,27.86
2022-07-29T10:40:41.264Z,27.63
2022-07-29T10:41:43.787Z,27.27
2022-07-29T10:42:40.424Z,27.01
2022-07-29T10:43:39.455Z,26.81
2022-07-29T10:44:39.407Z,26.76
2022-07-29T10:45:39.405Z,26.69
2022-07-29T10:46:39.406Z,26.66
2022-07-29T10:47:39.456Z,26.53
2022-07-29T10:48:39.491Z,26.49
2022-07-29T10:49:39.324Z,26.53
2022-07-29T10:50:39.345Z,26.51
2022-07-29T10:51:39.302Z,26.50
2022-07-29T10:52:39.288Z,26.44
2022-07-29T10:53:39.268Z,26.34
2022-07-29T10:54:42.274Z,26.23
2022-07-29T10:55:39.278Z,26.13
2022-07-29T10:56:39.239Z,26.09
2022-07-29T10:57:53.882Z,26.13
2022-07-29T10:58:41.105Z,26.17
2022-07-29T10:59:39.239Z,26.21
2022-07-29T11:00:39.179Z,26.27
2022-07-29T11:01:39.431Z,26.39
2022-07-29T11:02:41.989Z,26.53
2022-07-29T11:03:39.176Z,26.64
2022-07-29T11:04:39.129Z,26.71
2022-07-29T11:05:40.777Z,26.75
2022-07-29T11:06:40.151Z,26.86
2022-07-29T11:07:45.528Z,26.96
2022-07-29T11:08:40.070Z,27.03
2022-07-29T11:09:39.084Z,27.16
2022-07-29T11:10:39.052Z,27.25
2022-07-29T11:11:39.070Z,27.34
2022-07-29T11:12:39.485Z,27.34
2022-07-29T11:13:42.110Z,27.31
2022-07-29T11:14:39.087Z,27.27
2022-07-29T11:15:39.003Z,27.18
2022-07-29T11:16:39.022Z,27.13
2022-07-29T11:17:51.932Z,27.15
2022-07-29T11:18:39.943Z,27.06
2022-07-29T11:19:40.289Z,27.05
2022-07-29T11:20:38.916Z,27.08
2022-07-29T11:21:55.264Z,27.02
2022-07-29T11:22:45.931Z,27.08
2022-07-29T11:23:39.884Z,27.15
2022-07-29T11:24:38.864Z,27.34
2022-07-29T11:26:39.924Z,27.65
2022-07-29T11:27:38.896Z,27.80
2022-07-29T11:28:38.894Z,27.78
2022-07-29T11:30:39.785Z,27.90
2022-07-29T11:31:39.038Z,27.88
2022-07-29T11:32:38.846Z,27.96
2022-07-29T11:33:56.323Z,27.83
2022-07-29T11:34:39.786Z,27.74
2022-07-29T11:35:39.842Z,27.65
2022-07-29T11:36:38.746Z,27.63
2022-07-29T11:37:42.496Z,27.55
2022-07-29T11:38:41.552Z,27.43
2022-07-29T11:39:38.697Z,27.20
2022-07-29T11:40:38.689Z,27.02
2022-07-29T11:41:38.688Z,26.88
2022-07-29T11:42:41.816Z,26.61
2022-07-29T11:43:40.068Z,26.44
2022-07-29T11:44:42.871Z,26.34
2022-07-29T11:45:42.696Z,26.20
2022-07-29T11:46:38.611Z,26.21
2022-07-29T11:47:39.473Z,26.27
2022-07-29T11:48:38.756Z,26.23
2022-07-29T11:49:38.651Z,26.19
2022-07-29T11:50:44.394Z,26.27
2022-07-29T11:51:48.295Z,26.78
2022-07-29T11:52:49.483Z,27.09
2022-07-29T11:53:39.528Z,27.28
2022-07-29T11:54:57.988Z,27.46
2022-07-29T11:56:39.700Z,27.46
2022-07-29T11:57:38.464Z,27.58
2022-07-29T11:58:38.540Z,27.53
2022-07-29T11:59:38.591Z,27.74
2022-07-29T12:00:38.513Z,27.68
2022-07-29T12:01:38.616Z,28.05
2022-07-29T12:02:38.935Z,28.23
2022-07-29T12:03:38.603Z,28.33
2022-07-29T12:04:38.462Z,28.42
2022-07-29T12:05:38.465Z,28.24
2022-07-29T12:06:39.514Z,28.51
2022-07-29T12:07:02.363Z,27.46
2022-07-29T12:07:02.698Z,27.50
2022-07-29T12:07:03.582Z,27.87
2022-07-29T12:07:38.421Z,28.45
2022-07-29T12:08:38.305Z,28.45
2022-07-29T12:09:40.269Z,28.45
2022-07-29T12:10:38.301Z,28.38
2022-07-29T12:11:38.546Z,28.48
2022-07-29T12:12:38.395Z,28.69
2022-07-29T12:13:38.517Z,29.14
2022-07-29T12:14:39.266Z,28.89
2022-07-29T12:15:46.051Z,28.77
2022-07-29T12:16:39.280Z,28.70
2022-07-29T12:17:38.198Z,28.60
2022-07-29T12:18:38.178Z,28.61
2022-07-29T12:19:38.169Z,28.55
2022-07-29T12:20:38.149Z,28.51
2022-07-29T12:21:38.348Z,28.54
2022-07-29T12:22:39.128Z,28.54
2022-07-29T12:23:38.121Z,28.55
2022-07-29T12:24:38.134Z,28.74
2022-07-29T12:25:38.104Z,29.10
2022-07-29T12:26:38.110Z,29.25
2022-07-29T12:27:40.437Z,29.48
2022-07-29T12:28:38.192Z,29.62
2022-07-29T12:29:38.188Z,29.70
2022-07-29T12:30:38.168Z,29.70
2022-07-29T12:31:42.816Z,29.49
2022-07-29T12:32:39.028Z,29.20
2022-07-29T12:33:37.992Z,29.05
2022-07-29T12:34:38.044Z,29.14
2022-07-29T12:35:38.062Z,29.29
2022-07-29T12:36:38.064Z,29.48
2022-07-29T12:37:41.257Z,29.54
2022-07-29T12:38:37.953Z,29.63
2022-07-29T12:39:37.914Z,29.78
2022-07-29T12:40:37.896Z,29.84
2022-07-29T12:41:37.916Z,29.94
2022-07-29T12:42:37.873Z,30.10
2022-07-29T12:43:37.868Z,30.32
2022-07-29T12:44:37.846Z,30.32
2022-07-29T12:45:37.844Z,30.44
2022-07-29T12:46:37.927Z,30.15
2022-07-29T12:47:37.813Z,29.94
2022-07-29T12:48:37.905Z,29.79
2022-07-29T12:49:38.156Z,29.58
2022-07-29T12:50:37.884Z,29.57
2022-07-29T12:51:37.787Z,29.63
2022-07-29T12:52:37.747Z,29.66